Time;durP1;ratioP1;P1;durP2;ratioP2;P2;SDS_P1;SDS_P2;PMS_P1;PMS_P2;Temp;Humidity;BMP_temperature;BMP_pressure;BME280_temperature;BME280_humidity;BME280_pressure;Samples;Min_cycle;Max_cycle;Signal;HPM_P1;HPM_P2
2022/01/09 00:00:20;;;;;;;11.57;8.60;;;4.50;99.90;;;;;;5083434;28;20079;-87
2022/01/09 00:02:46;;;;;;;10.53;7.87;;;4.40;99.90;;;;;;5099812;28;20032;-88
2022/01/09 00:05:13;;;;;;;10.90;8.57;;;4.40;99.90;;;;;;5070562;28;20046;-88
2022/01/09 00:07:39;;;;;;;10.73;8.63;;;4.40;99.90;;;;;;5097685;28;20130;-89
2022/01/09 00:10:06;;;;;;;11.03;8.33;;;4.40;99.90;;;;;;5073412;28;20077;-88
2022/01/09 00:12:32;;;;;;;9.33;8.17;;;4.40;99.90;;;;;;5063195;28;20108;-87
2022/01/09 00:14:58;;;;;;;9.40;8.33;;;4.40;99.90;;;;;;5095721;28;20108;-87
2022/01/09 00:17:23;;;;;;;9.43;8.10;;;4.40;99.90;;;;;;5091626;28;20387;-88
2022/01/09 00:19:49;;;;;;;9.70;8.03;;;4.50;99.90;;;;;;5063288;28;20813;-88
2022/01/09 00:22:18;;;;;;;8.80;7.73;;;4.40;99.90;;;;;;5051927;28;20068;-86
2022/01/09 00:24:43;;;;;;;9.37;7.87;;;4.40;99.90;;;;;;5077054;28;20048;-87
2022/01/09 00:27:09;;;;;;;9.07;7.70;;;4.40;99.90;;;;;;5073469;28;20051;-86
2022/01/09 00:29:35;;;;;;;10.63;8.40;;;4.50;99.90;;;;;;5054240;28;20047;-88
2022/01/09 00:32:01;;;;;;;9.53;8.17;;;4.50;99.90;;;;;;5066245;28;20043;-87
2022/01/09 00:34:26;;;;;;;9.40;7.80;;;4.40;99.90;;;;;;5088018;28;20054;-87
2022/01/09 00:36:52;;;;;;;10.13;8.20;;;4.50;99.90;;;;;;5085196;28;20507;-88
2022/01/09 00:39:18;;;;;;;10.00;8.23;;;4.50;99.90;;;;;;5086973;28;20055;-87
2022/01/09 00:41:43;;;;;;;9.33;7.70;;;4.40;99.90;;;;;;5061542;28;20039;-85
2022/01/09 00:44:09;;;;;;;9.90;8.23;;;4.50;99.90;;;;;;5096862;28;20519;-88
2022/01/09 00:46:35;;;;;;;12.43;9.20;;;4.40;99.90;;;;;;5062605;28;20108;-87
2022/01/09 00:49:02;;;;;;;10.13;8.00;;;4.50;99.90;;;;;;5094813;28;20124;-87
2022/01/09 00:51:27;;;;;;;9.67;7.90;;;4.40;99.90;;;;;;5080116;28;20073;-87
2022/01/09 00:53:53;;;;;;;10.13;8.57;;;4.40;99.90;;;;;;5113433;28;20039;-87
2022/01/09 00:56:19;;;;;;;11.20;8.50;;;4.40;99.90;;;;;;5072358;28;20055;-87
2022/01/09 00:58:45;;;;;;;11.37;8.30;;;4.50;99.90;;;;;;5072701;28;20103;-86
2022/01/09 01:01:10;;;;;;;10.70;8.03;;;4.50;99.90;;;;;;5072785;28;20067;-86
2022/01/09 01:03:36;;;;;;;9.80;8.53;;;4.50;99.90;;;;;;5065635;28;20047;-86
2022/01/09 01:06:02;;;;;;;10.17;8.20;;;4.50;99.90;;;;;;5062799;28;20040;-87
2022/01/09 01:08:28;;;;;;;9.30;8.03;;;4.50;99.90;;;;;;5059676;28;20054;-85
2022/01/09 01:10:53;;;;;;;9.17;7.90;;;4.50;99.90;;;;;;5064563;28;20043;-86
2022/01/09 01:13:19;;;;;;;8.83;7.93;;;4.50;99.90;;;;;;5060715;28;20099;-87
2022/01/09 01:15:45;;;;;;;9.63;8.37;;;4.50;99.90;;;;;;5089880;28;20051;-84
2022/01/09 01:18:10;;;;;;;9.33;8.17;;;4.50;99.90;;;;;;5068550;28;20104;-85
2022/01/09 01:20:36;;;;;;;9.80;8.70;;;4.50;99.90;;;;;;5058183;28;20051;-86
2022/01/09 01:23:03;;;;;;;9.73;8.50;;;4.50;99.90;;;;;;5076635;28;20151;-85
2022/01/09 01:25:29;;;;;;;10.20;8.47;;;4.50;99.90;;;;;;5087951;28;20047;-86
2022/01/09 01:27:55;;;;;;;11.23;9.10;;;4.50;99.90;;;;;;5067576;28;20486;-87
2022/01/09 01:30:21;;;;;;;10.27;8.43;;;4.50;99.90;;;;;;5064432;28;20618;-85
2022/01/09 01:32:47;;;;;;;9.97;8.50;;;4.50;99.90;;;;;;5115014;28;20059;-85
2022/01/09 01:35:13;;;;;;;11.17;9.33;;;4.50;99.90;;;;;;5062695;28;20044;-85
2022/01/09 01:37:41;;;;;;;11.03;8.90;;;4.50;99.90;;;;;;5114335;28;20040;-85
2022/01/09 01:40:17;;;;;;;11.20;8.97;;;4.50;99.90;;;;;;5084013;28;20044;-85
2022/01/09 01:42:43;;;;;;;11.17;9.47;;;4.50;99.90;;;;;;5086343;28;20065;-85
2022/01/09 01:45:10;;;;;;;14.77;9.93;;;4.50;99.90;;;;;;5072119;28;20054;-85
2022/01/09 01:47:36;;;;;;;12.77;9.97;;;4.50;99.90;;;;;;5073446;28;20055;-85
2022/01/09 01:50:04;;;;;;;12.53;10.10;;;4.50;99.90;;;;;;5063730;28;20574;-86
2022/01/09 01:52:36;;;;;;;14.40;10.57;;;4.50;99.90;;;;;;5106034;28;20079;-85
2022/01/09 01:55:04;;;;;;;13.45;10.43;;;4.50;99.90;;;;;;5090063;28;20096;-84
2022/01/09 01:57:31;;;;;;;16.67;11.47;;;4.50;99.90;;;;;;5085248;28;20104;-85
2022/01/09 01:59:57;;;;;;;14.63;10.90;;;4.50;99.90;;;;;;5087051;28;20040;-85
2022/01/09 02:02:25;;;;;;;14.50;10.83;;;4.50;99.90;;;;;;5089649;28;20050;-84
2022/01/09 02:04:51;;;;;;;15.90;12.03;;;4.50;99.90;;;;;;5078831;28;20074;-85
2022/01/09 02:07:18;;;;;;;16.20;11.63;;;4.50;99.90;;;;;;5065429;28;20043;-84
2022/01/09 02:09:44;;;;;;;15.03;12.00;;;4.50;99.90;;;;;;5114889;28;20156;-85
2022/01/09 02:12:11;;;;;;;15.93;12.87;;;4.50;99.90;;;;;;5063448;28;20581;-86
2022/01/09 02:14:38;;;;;;;14.40;11.77;;;4.50;99.90;;;;;;5092492;28;20036;-85
2022/01/09 02:17:04;;;;;;;19.03;13.03;;;4.50;99.90;;;;;;5075558;28;20048;-85
2022/01/09 02:19:31;;;;;;;20.27;14.63;;;4.50;99.90;;;;;;5069654;28;20053;-85
2022/01/09 02:21:59;;;;;;;17.20;13.53;;;4.50;99.90;;;;;;5061021;28;20542;-85
2022/01/09 02:24:25;;;;;;;20.53;15.40;;;4.50;99.90;;;;;;5106616;28;20067;-85
2022/01/09 02:26:52;;;;;;;18.77;14.40;;;4.50;99.90;;;;;;5066942;28;20055;-85
2022/01/09 02:29:18;;;;;;;18.70;14.73;;;4.50;99.90;;;;;;5077433;28;20043;-86
2022/01/09 02:31:45;;;;;;;18.37;14.53;;;4.60;99.90;;;;;;5086140;28;20044;-85
2022/01/09 02:34:11;;;;;;;21.03;14.67;;;4.60;99.90;;;;;;5063349;28;20097;-87
2022/01/09 02:36:37;;;;;;;22.07;15.43;;;4.60;99.90;;;;;;5072844;28;20130;-85
2022/01/09 02:39:03;;;;;;;19.30;15.30;;;4.60;99.90;;;;;;5066809;28;20079;-86
2022/01/09 02:41:29;;;;;;;19.20;15.13;;;4.60;99.90;;;;;;5085490;28;20040;-86
2022/01/09 02:43:55;;;;;;;19.23;15.00;;;4.60;99.90;;;;;;5096928;28;20107;-86
2022/01/09 02:49:07;;;;;;;20.23;15.10;;;4.60;99.90;;;;;;5084249;28;20052;-86
2022/01/09 02:51:39;;;;;;;21.50;15.97;;;4.70;99.90;;;;;;5091373;28;20043;-86
2022/01/09 02:56:53;;;;;;;21.60;15.47;;;4.70;99.90;;;;;;5070220;28;20135;-86
2022/01/09 02:59:19;;;;;;;20.90;14.93;;;4.70;99.90;;;;;;5093183;28;20075;-86
2022/01/09 03:01:45;;;;;;;21.10;15.13;;;4.80;99.90;;;;;;5079977;28;20047;-87
2022/01/09 03:04:10;;;;;;;20.30;14.77;;;4.70;99.90;;;;;;5075361;28;20112;-85
2022/01/09 03:06:36;;;;;;;24.00;15.93;;;4.80;99.90;;;;;;5091991;28;20064;-87
2022/01/09 03:09:05;;;;;;;19.40;13.50;;;4.80;99.90;;;;;;5085994;28;20032;-86
2022/01/09 03:11:31;;;;;;;18.63;13.73;;;4.70;99.90;;;;;;5064128;28;20054;-87
2022/01/09 03:13:57;;;;;;;21.37;15.00;;;4.90;99.90;;;;;;5080262;28;20047;-86
2022/01/09 03:16:23;;;;;;;20.83;14.43;;;4.80;99.90;;;;;;5075652;28;20032;-86
2022/01/09 03:18:49;;;;;;;16.70;12.63;;;4.80;99.90;;;;;;5056882;28;20032;-87
2022/01/09 03:21:14;;;;;;;18.10;12.53;;;4.90;99.90;;;;;;5098905;28;20861;-85
2022/01/09 03:23:40;;;;;;;18.53;11.90;;;4.90;99.90;;;;;;5068923;28;20114;-86
2022/01/09 03:26:09;;;;;;;18.30;10.93;;;4.90;99.90;;;;;;5074929;28;20502;-85
2022/01/09 03:28:35;;;;;;;16.90;11.73;;;4.90;99.90;;;;;;5096375;28;20035;-86
2022/01/09 03:31:01;;;;;;;16.93;10.37;;;5.00;99.90;;;;;;5064755;28;20040;-87
2022/01/09 03:33:26;;;;;;;19.67;10.60;;;5.00;99.90;;;;;;5055749;28;20104;-86
2022/01/09 03:35:52;;;;;;;16.50;9.37;;;5.00;99.90;;;;;;5062772;28;20078;-86
2022/01/09 03:38:18;;;;;;;19.53;9.40;;;5.10;99.90;;;;;;5093243;28;20044;-86
2022/01/09 03:40:44;;;;;;;13.40;7.87;;;5.20;99.90;;;;;;5065219;28;20056;-85
2022/01/09 03:43:09;;;;;;;16.57;8.43;;;5.20;99.90;;;;;;5042151;28;20048;-85
2022/01/09 03:45:35;;;;;;;18.60;7.30;;;5.20;99.90;;;;;;5075959;28;20145;-86
2022/01/09 03:48:01;;;;;;;18.27;6.90;;;5.20;99.90;;;;;;5039968;28;20048;-86
2022/01/09 03:50:27;;;;;;;15.47;6.37;;;5.30;99.90;;;;;;5026391;28;20040;-86
2022/01/09 03:52:53;;;;;;;15.20;6.40;;;5.30;99.90;;;;;;5075955;28;20059;-87
2022/01/09 03:55:21;;;;;;;19.00;5.53;;;5.30;99.90;;;;;;5064975;28;20044;-86
2022/01/09 03:57:48;;;;;;;14.73;4.53;;;5.40;99.90;;;;;;5068047;28;20049;-86
2022/01/09 04:00:17;;;;;;;17.33;4.57;;;5.40;99.90;;;;;;5072991;28;20113;-86
2022/01/09 04:02:43;;;;;;;15.63;4.30;;;5.40;99.90;;;;;;5070358;28;20040;-86
2022/01/09 04:05:09;;;;;;;14.47;4.50;;;5.50;99.90;;;;;;5063236;28;20058;-86
2022/01/09 04:07:35;;;;;;;23.37;4.60;;;5.50;99.90;;;;;;5042864;28;20033;-86
2022/01/09 04:10:03;;;;;;;22.07;4.67;;;5.50;99.90;;;;;;5075686;28;20055;-86
2022/01/09 04:12:35;;;;;;;20.13;5.47;;;5.60;99.90;;;;;;5065584;28;20048;-86
2022/01/09 04:15:07;;;;;;;24.30;4.97;;;5.70;99.90;;;;;;5052172;28;20048;-86
2022/01/09 04:17:52;;;;;;;29.52;5.47;;;5.70;99.90;;;;;;5088779;28;20048;-85
2022/01/09 04:20:30;;;;;;;26.50;5.67;;;5.70;99.90;;;;;;5081170;28;20221;-86
2022/01/09 04:22:56;;;;;;;29.57;5.97;;;5.70;99.90;;;;;;5079113;28;20040;-86
2022/01/09 04:25:22;;;;;;;28.90;6.30;;;5.80;99.90;;;;;;5057079;28;20040;-87
2022/01/09 04:27:50;;;;;;;30.37;5.63;;;5.80;99.90;;;;;;5058137;28;20047;-87
2022/01/09 04:30:16;;;;;;;37.67;6.37;;;5.80;99.90;;;;;;5072426;28;20052;-87
2022/01/09 04:32:42;;;;;;;32.67;5.53;;;5.80;99.90;;;;;;5048231;28;20052;-88
2022/01/09 04:35:08;;;;;;;39.07;6.67;;;5.90;99.90;;;;;;5057722;28;20143;-89
2022/01/09 04:37:35;;;;;;;34.77;6.10;;;5.90;99.90;;;;;;5054492;28;20118;-86
2022/01/09 04:40:03;;;;;;;31.37;6.73;;;6.00;99.90;;;;;;5052309;27;20054;-87
2022/01/09 04:42:52;;;;;;;41.90;6.37;;;6.00;99.90;;;;;;5068980;27;20039;-86
2022/01/09 04:45:19;;;;;;;37.93;6.37;;;6.10;99.90;;;;;;5088685;27;20050;-88
2022/01/09 04:47:47;;;;;;;33.87;6.87;;;6.10;99.90;;;;;;5108583;28;20066;-88
2022/01/09 04:50:19;;;;;;;39.80;6.33;;;6.10;99.90;;;;;;5082713;28;20040;-88
2022/01/09 04:52:46;;;;;;;28.63;5.03;;;6.10;99.90;;;;;;5084462;28;20484;-87
2022/01/09 04:55:12;;;;;;;43.23;7.30;;;6.10;99.90;;;;;;5074004;27;20047;-88
2022/01/09 04:57:38;;;;;;;32.20;5.80;;;6.20;99.90;;;;;;5093437;27;20043;-88
2022/01/09 05:00:06;;;;;;;37.37;6.23;;;6.10;99.90;;;;;;5098577;27;20050;-89
2022/01/09 05:02:32;;;;;;;28.53;5.17;;;6.10;99.90;;;;;;5090528;28;20040;-87
2022/01/09 05:04:58;;;;;;;34.87;6.20;;;6.20;99.90;;;;;;5064973;27;20039;-87
2022/01/09 05:07:24;;;;;;;36.57;6.37;;;6.10;99.90;;;;;;5084557;27;20047;-87
2022/01/09 05:09:49;;;;;;;32.83;5.53;;;6.10;99.90;;;;;;5068679;27;20031;-86
2022/01/09 05:12:15;;;;;;;33.30;5.17;;;6.10;99.90;;;;;;5074927;27;20046;-86
2022/01/09 05:14:41;;;;;;;30.70;4.83;;;6.10;99.90;;;;;;5075699;27;20043;-87
2022/01/09 05:17:07;;;;;;;38.67;5.80;;;6.10;99.90;;;;;;5079972;28;20483;-88
2022/01/09 05:19:35;;;;;;;26.90;4.73;;;6.10;99.90;;;;;;5068459;27;20080;-87
2022/01/09 05:22:01;;;;;;;34.30;5.30;;;6.10;99.90;;;;;;5099684;27;20031;-88
2022/01/09 05:24:27;;;;;;;29.50;4.80;;;6.10;99.90;;;;;;5064029;28;20108;-87
2022/01/09 05:26:54;;;;;;;30.07;5.50;;;6.10;99.90;;;;;;5066431;27;20043;-87
2022/01/09 05:29:21;;;;;;;25.87;5.07;;;6.10;99.90;;;;;;5064321;28;20532;-87
2022/01/09 05:31:51;;;;;;;23.87;5.20;;;6.10;99.90;;;;;;5092094;27;20046;-86
2022/01/09 05:34:17;;;;;;;27.30;4.90;;;6.10;99.90;;;;;;5101468;27;20044;-86
2022/01/09 05:36:43;;;;;;;26.43;4.50;;;6.10;99.90;;;;;;5098212;28;20067;-86
2022/01/09 05:39:09;;;;;;;31.93;4.83;;;6.10;99.90;;;;;;5092989;27;20047;-89
2022/01/09 05:41:36;;;;;;;27.07;4.50;;;6.00;99.90;;;;;;5095819;27;20076;-87
2022/01/09 05:44:02;;;;;;;21.97;4.30;;;6.00;99.90;;;;;;5082402;28;20035;-88
2022/01/09 05:46:28;;;;;;;23.27;4.43;;;6.00;99.90;;;;;;5086768;27;20130;-87
2022/01/09 05:48:53;;;;;;;34.33;5.10;;;6.00;99.90;;;;;;5098881;28;20099;-87
2022/01/09 05:51:19;;;;;;;25.10;3.50;;;6.00;99.90;;;;;;5063405;28;20051;-87
2022/01/09 05:53:45;;;;;;;22.30;4.63;;;6.00;99.90;;;;;;5080787;27;20046;-88
2022/01/09 05:56:11;;;;;;;29.47;3.83;;;5.90;99.90;;;;;;5064026;28;20142;-87
2022/01/09 05:58:37;;;;;;;22.60;3.17;;;5.90;99.90;;;;;;5112226;28;20051;-87
2022/01/09 06:01:03;;;;;;;19.27;4.30;;;5.90;99.90;;;;;;5067262;28;20045;-87
2022/01/09 06:03:29;;;;;;;27.07;4.13;;;5.80;99.90;;;;;;5088272;27;20062;-88
2022/01/09 06:05:55;;;;;;;15.60;3.23;;;5.80;99.90;;;;;;5081000;27;20051;-88
2022/01/09 06:08:21;;;;;;;24.03;3.83;;;5.80;99.90;;;;;;5078296;27;20481;-87
2022/01/09 06:10:47;;;;;;;27.60;4.03;;;5.80;99.90;;;;;;5064283;28;20079;-87
2022/01/09 06:13:13;;;;;;;19.97;4.00;;;5.80;99.90;;;;;;5070531;27;20039;-87
2022/01/09 06:15:38;;;;;;;21.00;3.60;;;5.70;99.90;;;;;;5097966;27;20047;-87
2022/01/09 06:18:05;;;;;;;18.03;3.77;;;5.70;99.90;;;;;;5083975;27;20054;-86
2022/01/09 06:20:30;;;;;;;23.10;4.90;;;5.70;99.90;;;;;;5078251;28;20815;-87
2022/01/09 06:22:56;;;;;;;21.57;4.10;;;5.70;99.90;;;;;;5079648;27;20043;-88
2022/01/09 06:25:22;;;;;;;22.83;4.20;;;5.70;99.90;;;;;;5061014;27;20046;-88
2022/01/09 06:27:48;;;;;;;22.43;4.10;;;5.70;99.90;;;;;;5082854;27;20047;-89
2022/01/09 06:30:14;;;;;;;21.67;3.70;;;5.60;99.90;;;;;;5076853;28;20108;-89
2022/01/09 06:32:40;;;;;;;22.30;3.20;;;5.60;99.90;;;;;;5075569;27;20042;-89
2022/01/09 06:35:06;;;;;;;17.70;2.90;;;5.60;99.90;;;;;;5090255;27;20043;-88
2022/01/09 06:37:32;;;;;;;20.97;3.60;;;5.60;99.90;;;;;;5093178;27;20848;-87
2022/01/09 06:39:58;;;;;;;22.40;3.30;;;5.60;99.90;;;;;;5100200;27;20110;-87
2022/01/09 06:42:25;;;;;;;18.57;3.63;;;5.60;99.90;;;;;;5099864;28;20162;-86
2022/01/09 06:44:51;;;;;;;27.23;4.40;;;5.50;99.90;;;;;;5063931;28;20057;-87
2022/01/09 06:47:17;;;;;;;22.30;3.73;;;5.60;99.90;;;;;;5079490;27;20102;-86
2022/01/09 06:49:43;;;;;;;20.10;3.83;;;5.50;99.90;;;;;;5100027;27;20051;-87
2022/01/09 06:52:09;;;;;;;20.07;3.57;;;5.50;99.90;;;;;;5067577;28;20031;-87
2022/01/09 06:54:34;;;;;;;18.53;3.40;;;5.50;99.90;;;;;;5099403;28;20078;-88
2022/01/09 06:57:02;;;;;;;19.93;3.70;;;5.50;99.90;;;;;;5081429;28;20093;-88
2022/01/09 06:59:27;;;;;;;19.20;3.90;;;5.50;99.90;;;;;;5076807;28;20081;-88
2022/01/09 07:01:53;;;;;;;19.13;3.20;;;5.50;99.90;;;;;;5093184;28;20035;-88
2022/01/09 07:04:19;;;;;;;25.03;4.43;;;5.50;99.90;;;;;;5064687;28;20103;-86
2022/01/09 07:06:44;;;;;;;21.97;4.17;;;5.50;99.90;;;;;;5052336;28;20039;-88
2022/01/09 07:09:10;;;;;;;19.47;3.30;;;5.50;99.90;;;;;;5066450;28;20054;-86
2022/01/09 07:11:36;;;;;;;19.17;3.23;;;5.50;99.90;;;;;;5087252;28;20129;-89
2022/01/09 07:14:02;;;;;;;18.63;2.57;;;5.40;99.90;;;;;;5065764;28;20050;-89
2022/01/09 07:16:28;;;;;;;16.27;4.23;;;5.50;99.90;;;;;;5083281;28;20043;-90
2022/01/09 07:18:54;;;;;;;16.10;2.97;;;5.50;99.90;;;;;;5085764;28;20321;-83
2022/01/09 07:21:20;;;;;;;14.70;3.00;;;5.50;99.90;;;;;;5077771;28;20050;-89
2022/01/09 07:23:45;;;;;;;23.30;3.13;;;5.50;99.90;;;;;;5075724;28;20047;-78
2022/01/09 07:26:11;;;;;;;20.20;3.70;;;5.50;99.90;;;;;;5074495;28;20073;-86
2022/01/09 07:28:37;;;;;;;18.43;3.20;;;5.50;99.90;;;;;;5095037;28;20051;-83
2022/01/09 07:31:03;;;;;;;12.43;3.20;;;5.50;99.90;;;;;;5111179;28;20047;-85
2022/01/09 07:33:30;;;;;;;19.40;3.20;;;5.50;99.90;;;;;;5075310;27;20035;-86
2022/01/09 07:35:56;;;;;;;15.97;3.03;;;5.50;99.90;;;;;;5067121;27;20035;-85
2022/01/09 07:38:22;;;;;;;16.23;3.50;;;5.50;99.90;;;;;;5091029;28;20051;-80
2022/01/09 07:40:49;;;;;;;17.80;3.83;;;5.40;99.90;;;;;;5099993;27;20104;-85
2022/01/09 07:43:15;;;;;;;18.47;3.53;;;5.40;99.90;;;;;;5104218;27;20047;-84
2022/01/09 07:45:41;;;;;;;12.37;2.47;;;5.40;99.90;;;;;;5098744;27;20054;-84
2022/01/09 07:48:07;;;;;;;18.97;3.10;;;5.40;99.90;;;;;;5084683;27;20043;-84
2022/01/09 07:50:33;;;;;;;17.17;3.30;;;5.30;99.90;;;;;;5098530;27;20049;-85
2022/01/09 07:52:59;;;;;;;15.23;4.00;;;5.40;99.90;;;;;;5095182;27;20039;-85
2022/01/09 07:55:25;;;;;;;13.40;2.63;;;5.40;99.90;;;;;;5090930;27;20042;-84
2022/01/09 07:57:51;;;;;;;21.27;3.87;;;5.40;99.90;;;;;;5110523;27;20043;-85
2022/01/09 08:00:19;;;;;;;14.27;2.87;;;5.40;99.90;;;;;;5100981;27;20035;-84
2022/01/09 08:02:45;;;;;;;15.43;2.93;;;5.40;99.90;;;;;;5081379;27;20031;-86
2022/01/09 08:05:12;;;;;;;11.90;2.50;;;5.40;99.90;;;;;;5091592;27;20072;-83
2022/01/09 08:07:39;;;;;;;11.33;2.77;;;5.40;99.90;;;;;;5083877;27;20058;-82
2022/01/09 08:10:05;;;;;;;16.67;2.27;;;5.30;99.90;;;;;;5083997;27;20151;-83
2022/01/09 08:12:31;;;;;;;15.70;2.63;;;5.30;99.90;;;;;;5101258;27;20089;-81
2022/01/09 08:14:57;;;;;;;13.50;2.97;;;5.30;99.90;;;;;;5088378;27;20043;-82
2022/01/09 08:17:23;;;;;;;15.67;2.73;;;5.30;99.90;;;;;;5095270;28;20039;-81
2022/01/09 08:19:49;;;;;;;13.80;2.30;;;5.30;99.90;;;;;;5080452;27;20069;-83
2022/01/09 08:22:15;;;;;;;7.30;2.00;;;5.30;99.90;;;;;;5085567;27;20055;-81
2022/01/09 08:24:41;;;;;;;10.77;2.13;;;5.30;99.90;;;;;;5083406;27;20090;-82
2022/01/09 08:27:08;;;;;;;7.40;2.20;;;5.30;99.90;;;;;;5114393;27;20151;-82
2022/01/09 08:29:34;;;;;;;20.00;2.87;;;5.30;99.90;;;;;;5083163;27;20516;-83
2022/01/09 08:32:01;;;;;;;10.83;2.17;;;5.30;99.90;;;;;;5078273;27;20091;-81
2022/01/09 08:34:27;;;;;;;14.93;2.30;;;5.30;99.90;;;;;;5080065;27;20069;-78
2022/01/09 08:36:53;;;;;;;11.90;2.17;;;5.20;99.90;;;;;;5083404;27;20413;-81
2022/01/09 08:39:19;;;;;;;12.43;2.07;;;5.30;99.90;;;;;;5079606;27;20099;-81
2022/01/09 08:41:45;;;;;;;7.43;2.00;;;5.30;99.90;;;;;;5054480;27;20074;-81
2022/01/09 08:44:10;;;;;;;8.87;2.10;;;5.30;99.90;;;;;;5065332;27;20050;-80
2022/01/09 08:46:38;;;;;;;8.83;2.17;;;5.30;99.90;;;;;;5090641;27;20608;-81
2022/01/09 08:49:05;;;;;;;11.13;2.53;;;5.20;99.90;;;;;;5087688;28;20160;-81
2022/01/09 08:51:31;;;;;;;15.77;2.50;;;5.20;99.90;;;;;;5092732;27;20046;-81
2022/01/09 08:53:58;;;;;;;9.33;2.00;;;5.20;99.90;;;;;;5081599;28;20047;-81
2022/01/09 08:56:25;;;;;;;11.97;2.07;;;5.30;99.90;;;;;;5084603;27;20130;-82
2022/01/09 08:58:51;;;;;;;8.80;2.10;;;5.30;99.90;;;;;;5062975;27;20047;-80
2022/01/09 09:01:17;;;;;;;13.33;2.63;;;5.30;99.90;;;;;;5082691;27;20054;-81
2022/01/09 09:03:44;;;;;;;11.17;2.10;;;5.30;99.90;;;;;;5100873;27;20050;-81
2022/01/09 09:06:12;;;;;;;13.30;2.50;;;5.30;99.90;;;;;;5095329;28;20043;-82
2022/01/09 09:08:39;;;;;;;8.40;2.50;;;5.30;99.90;;;;;;5088325;27;20038;-81
2022/01/09 09:11:10;;;;;;;11.33;2.30;;;5.30;99.90;;;;;;5091693;27;20058;-81
2022/01/09 09:13:36;;;;;;;13.57;2.40;;;5.40;99.90;;;;;;5076363;27;20047;-81
2022/01/09 09:16:02;;;;;;;16.43;2.40;;;5.30;99.90;;;;;;5089563;27;20035;-82
2022/01/09 09:18:29;;;;;;;12.10;2.60;;;5.40;99.90;;;;;;5100151;27;20041;-82
2022/01/09 09:20:55;;;;;;;9.67;2.30;;;5.40;99.90;;;;;;5085804;27;20043;-81
2022/01/09 09:23:21;;;;;;;12.93;3.43;;;5.40;99.90;;;;;;5082086;27;20043;-81
2022/01/09 09:25:48;;;;;;;15.50;3.17;;;5.40;99.90;;;;;;5081542;27;20112;-81
2022/01/09 09:28:14;;;;;;;8.53;2.47;;;5.40;99.90;;;;;;5082692;27;20051;-82
2022/01/09 09:30:41;;;;;;;13.13;2.80;;;5.40;99.90;;;;;;5081179;28;20041;-80
2022/01/09 09:33:07;;;;;;;13.87;3.00;;;5.50;99.90;;;;;;5080869;28;20052;-81
2022/01/09 09:35:34;;;;;;;16.77;2.90;;;5.50;99.90;;;;;;5082365;27;20031;-82
2022/01/09 09:38:00;;;;;;;9.87;3.07;;;5.50;99.90;;;;;;5098605;27;20086;-81
2022/01/09 09:40:26;;;;;;;17.83;2.80;;;5.50;99.90;;;;;;5085522;27;20047;-81
2022/01/09 09:42:53;;;;;;;14.07;2.70;;;5.50;99.90;;;;;;5099689;27;20542;-81
2022/01/09 09:45:19;;;;;;;10.60;2.37;;;5.60;99.90;;;;;;5079187;27;20095;-80
2022/01/09 09:47:45;;;;;;;9.90;2.90;;;5.60;99.90;;;;;;5085616;28;20043;-81
2022/01/09 09:50:13;;;;;;;12.30;2.73;;;5.60;99.90;;;;;;5073307;27;20043;-81
2022/01/09 09:52:44;;;;;;;15.07;2.60;;;5.60;99.90;;;;;;5098241;27;20039;-81
2022/01/09 09:55:11;;;;;;;14.33;2.50;;;5.60;99.90;;;;;;5084529;27;20056;-81
2022/01/09 09:57:37;;;;;;;15.77;2.80;;;5.60;99.90;;;;;;5078114;27;20046;-82
2022/01/09 10:00:09;;;;;;;10.60;2.13;;;5.60;99.90;;;;;;5094552;28;20040;-82
2022/01/09 10:02:45;;;;;;;11.53;2.60;;;5.60;99.90;;;;;;5080597;28;20082;-82
2022/01/09 10:05:14;;;;;;;10.93;2.07;;;5.60;99.90;;;;;;5098247;27;20063;-82
2022/01/09 10:07:39;;;;;;;10.13;2.30;;;5.60;99.90;;;;;;5079509;27;20050;-82
2022/01/09 10:10:14;;;;;;;10.47;1.70;;;5.70;99.90;;;;;;5079550;27;20043;-82
2022/01/09 10:12:41;;;;;;;8.20;2.40;;;5.70;99.90;;;;;;5116780;27;20039;-81
2022/01/09 10:15:25;;;;;;;7.17;1.70;;;5.60;99.90;;;;;;5091589;27;20095;-82
2022/01/09 10:17:51;;;;;;;8.87;1.50;;;5.70;99.90;;;;;;5078214;27;20090;-81
2022/01/09 10:20:23;;;;;;;7.83;1.90;;;5.70;99.90;;;;;;5069674;27;20051;-82
2022/01/09 10:22:50;;;;;;;;;;;5.70;99.90;;;;;;5089645;27;20064;-82
2022/01/09 10:25:36;;;;;;;9.20;1.63;;;5.70;99.90;;;;;;5085023;28;20402;-82
2022/01/09 10:28:12;;;;;;;7.30;1.70;;;5.70;99.90;;;;;;5117098;27;20055;-81
2022/01/09 10:30:46;;;;;;;11.83;2.37;;;5.70;99.90;;;;;;5071866;27;20138;-83
2022/01/09 10:33:21;;;;;;;9.50;1.80;;;5.70;99.90;;;;;;5087517;28;20047;-82
2022/01/09 10:35:48;;;;;;;9.57;1.80;;;5.70;99.90;;;;;;5097634;27;20072;-82
2022/01/09 10:38:24;;;;;;;11.37;2.37;;;5.70;99.90;;;;;;5099648;27;20087;-83
2022/01/09 10:40:57;;;;;;;9.70;1.83;;;5.70;99.90;;;;;;5092286;28;20066;-82
2022/01/09 10:43:41;;;;;;;10.17;1.90;;;5.80;99.90;;;;;;5101855;28;20104;-82
2022/01/09 10:46:09;;;;;;;4.30;1.50;;;5.80;99.90;;;;;;5085901;27;20072;-82
2022/01/09 10:48:41;;;;;;;7.73;1.73;;;5.80;99.90;;;;;;5091537;27;20791;-82
2022/01/09 10:51:10;;;;;;;7.83;1.70;;;5.80;99.90;;;;;;5097469;28;20126;-82
2022/01/09 10:53:41;;;;;;;12.87;2.33;;;5.80;99.90;;;;;;5089979;28;20047;-83
2022/01/09 10:56:16;;;;;;;7.33;1.83;;;5.80;99.90;;;;;;5078867;28;20047;-83
2022/01/09 10:58:47;;;;;;;8.67;2.00;;;5.80;99.90;;;;;;5090115;28;20286;-82
2022/01/09 11:01:23;;;;;;;6.27;1.30;;;5.80;99.90;;;;;;5097762;28;20051;-82
2022/01/09 11:04:00;;;;;;;9.77;1.70;;;5.80;99.90;;;;;;5111902;28;20047;-82
2022/01/09 11:06:31;;;;;;;7.30;1.60;;;5.90;99.90;;;;;;5092698;27;20099;-82
2022/01/09 11:08:58;;;;;;;5.57;1.48;;;5.80;99.90;;;;;;5098811;27;20043;-83
2022/01/09 11:13:55;;;;;;;6.20;1.43;;;5.90;99.90;;;;;;5116580;27;20556;-82
2022/01/09 11:16:33;;;;;;;5.57;1.67;;;5.90;99.90;;;;;;5100870;27;20100;-82
2022/01/09 11:19:04;;;;;;;4.37;1.30;;;6.00;99.90;;;;;;5120052;27;20046;-83
2022/01/09 11:21:30;;;;;;;6.27;1.60;;;6.00;99.90;;;;;;5103292;27;20039;-83
2022/01/09 11:24:07;;;;;;;9.40;1.90;;;6.00;99.90;;;;;;5119926;27;20047;-83
2022/01/09 11:26:47;;;;;;;9.27;2.10;;;6.00;99.90;;;;;;5095706;27;20573;-82
2022/01/09 11:29:19;;;;;;;10.50;1.80;;;6.00;99.90;;;;;;5096644;27;20275;-83
2022/01/09 11:32:10;;;;;;;7.00;1.60;;;6.10;99.90;;;;;;5117215;27;20071;-81
2022/01/09 11:34:56;;;;;;;9.73;1.80;;;6.10;99.90;;;;;;5131070;27;20050;-82
2022/01/09 11:37:25;;;;;;;11.57;2.10;;;6.20;99.90;;;;;;5101685;27;20047;-83
2022/01/09 11:39:51;;;;;;;7.77;1.90;;;6.30;99.90;;;;;;5087968;27;20078;-82
2022/01/09 11:42:17;;;;;;;8.47;1.83;;;6.30;99.90;;;;;;5084021;27;20073;-82
2022/01/09 11:44:51;;;;;;;8.50;1.93;;;6.40;99.90;;;;;;5094371;27;20040;-82
2022/01/09 11:47:18;;;;;;;9.77;2.20;;;6.40;99.90;;;;;;5098284;27;20590;-82
2022/01/09 11:49:53;;;;;;;9.33;2.17;;;6.40;99.90;;;;;;5097011;27;20047;-83
2022/01/09 11:52:24;;;;;;;9.87;2.10;;;6.50;99.90;;;;;;5116282;27;20039;-86
2022/01/09 11:55:05;;;;;;;10.63;2.30;;;6.50;99.90;;;;;;5098257;27;20039;-86
2022/01/09 11:57:36;;;;;;;7.93;1.80;;;6.60;99.90;;;;;;5109426;27;20051;-86
2022/01/09 12:00:06;;;;;;;6.93;2.00;;;6.70;99.90;;;;;;5102539;27;20051;-85
2022/01/09 12:02:34;;;;;;;12.90;2.00;;;6.70;99.90;;;;;;5098016;27;20042;-86
2022/01/09 12:05:06;;;;;;;8.73;1.83;;;6.70;99.90;;;;;;5094630;27;20050;-85
2022/01/09 12:07:34;;;;;;;10.60;1.83;;;6.80;99.90;;;;;;5095532;27;20123;-86
2022/01/09 12:10:32;;;;;;;7.80;2.20;;;6.80;99.90;;;;;;5096878;27;20075;-86
2022/01/09 12:12:58;;;;;;;10.40;2.13;;;6.90;99.90;;;;;;5105638;27;20059;-86
2022/01/09 12:15:33;;;;;;;8.20;1.73;;;7.00;99.90;;;;;;5114230;27;20047;-86
2022/01/09 12:18:00;;;;;;;9.47;2.43;;;7.00;99.90;;;;;;5100457;27;20051;-85
2022/01/09 12:20:28;;;;;;;8.70;1.80;;;7.00;99.90;;;;;;5082169;27;20051;-87
2022/01/09 12:23:04;;;;;;;11.33;1.63;;;7.00;99.90;;;;;;5081098;27;20043;-86
2022/01/09 12:25:36;;;;;;;8.10;1.50;;;6.90;99.90;;;;;;5080215;27;20039;-86
2022/01/09 12:28:23;;;;;;;7.75;1.90;;;6.90;99.90;;;;;;5095656;27;20215;-85
2022/01/09 12:30:51;;;;;;;8.47;1.47;;;6.90;99.90;;;;;;5099174;27;20043;-85
2022/01/09 12:33:27;;;;;;;10.13;1.80;;;6.90;99.90;;;;;;5097054;27;20051;-86
2022/01/09 12:36:14;;;;;;;9.80;1.97;;;6.90;99.90;;;;;;5089531;27;20499;-85
2022/01/09 12:38:51;;;;;;;10.07;2.13;;;6.90;99.90;;;;;;5107306;27;20054;-86
2022/01/09 12:41:22;;;;;;;4.87;1.30;;;6.90;99.90;;;;;;5106773;27;20071;-85
2022/01/09 12:43:49;;;;;;;13.30;1.93;;;6.90;99.90;;;;;;5099800;27;20137;-85
2022/01/09 12:46:18;;;;;;;11.57;2.10;;;6.90;99.90;;;;;;5092871;27;20047;-88
2022/01/09 12:48:58;;;;;;;7.03;1.50;;;6.90;99.90;;;;;;5089168;27;20040;-87
2022/01/09 12:51:26;;;;;;;23.37;2.30;;;6.90;99.90;;;;;;5098692;27;20079;-87
2022/01/09 12:53:55;;;;;;;6.03;1.53;;;6.90;99.90;;;;;;5100684;27;20055;-87
2022/01/09 12:56:29;;;;;;;7.93;1.97;;;6.90;99.90;;;;;;5099800;27;20047;-88
2022/01/09 12:58:58;;;;;;;7.80;2.07;;;7.00;99.90;;;;;;5095344;27;20435;-86